sensor_id;sensor_type;location;lat;lon;timestamp;P1;durP1;ratioP1;P2;durP2;ratioP2
38252;SDS011;24785;52.372;20.672;2023-05-10T00:05:03;13.95;;;7.00;;
38252;SDS011;24785;52.372;20.672;2023-05-10T00:15:04;15.90;;;6.93;;
38252;SDS011;24785;52.372;20.672;2023-05-10T00:25:06;17.08;;;7.45;;
38252;SDS011;24785;52.372;20.672;2023-05-10T00:35:08;14.15;;;5.93;;
38252;SDS011;24785;52.372;20.672;2023-05-10T00:45:09;15.20;;;5.63;;
38252;SDS011;24785;52.372;20.672;2023-05-10T00:55:10;13.32;;;6.47;;
38252;SDS011;24785;52.372;20.672;2023-05-10T01:05:12;12.23;;;5.50;;
38252;SDS011;24785;52.372;20.672;2023-05-10T01:15:13;18.55;;;5.78;;
38252;SDS011;24785;52.372;20.672;2023-05-10T01:25:32;13.10;;;5.65;;
38252;SDS011;24785;52.372;20.672;2023-05-10T01:45:50;18.15;;;5.93;;
38252;SDS011;24785;52.372;20.672;2023-05-10T01:56:01;12.55;;;5.65;;
38252;SDS011;24785;52.372;20.672;2023-05-10T02:06:04;16.00;;;6.03;;
38252;SDS011;24785;52.372;20.672;2023-05-10T02:26:08;13.75;;;5.80;;
38252;SDS011;24785;52.372;20.672;2023-05-10T02:36:09;12.38;;;5.30;;
38252;SDS011;24785;52.372;20.672;2023-05-10T02:46:11;19.03;;;6.87;;
38252;SDS011;24785;52.372;20.672;2023-05-10T02:56:18;15.95;;;5.25;;
38252;SDS011;24785;52.372;20.672;2023-05-10T03:06:25;13.05;;;5.13;;
38252;SDS011;24785;52.372;20.672;2023-05-10T03:16:27;17.13;;;4.90;;
38252;SDS011;24785;52.372;20.672;2023-05-10T03:26:32;11.60;;;5.30;;
38252;SDS011;24785;52.372;20.672;2023-05-10T03:36:34;10.90;;;4.78;;
38252;SDS011;24785;52.372;20.672;2023-05-10T03:46:35;9.52;;;4.45;;
38252;SDS011;24785;52.372;20.672;2023-05-10T03:56:36;24.75;;;5.85;;
38252;SDS011;24785;52.372;20.672;2023-05-10T04:06:37;18.15;;;5.72;;
38252;SDS011;24785;52.372;20.672;2023-05-10T04:16:38;9.20;;;4.50;;
38252;SDS011;24785;52.372;20.672;2023-05-10T04:26:39;8.40;;;4.50;;
38252;SDS011;24785;52.372;20.672;2023-05-10T04:36:40;12.68;;;5.05;;
38252;SDS011;24785;52.372;20.672;2023-05-10T04:46:40;11.88;;;4.82;;
38252;SDS011;24785;52.372;20.672;2023-05-10T04:56:41;12.18;;;4.55;;
38252;SDS011;24785;52.372;20.672;2023-05-10T05:06:42;6.00;;;3.42;;
38252;SDS011;24785;52.372;20.672;2023-05-10T05:16:43;5.97;;;2.95;;
38252;SDS011;24785;52.372;20.672;2023-05-10T05:26:44;8.30;;;2.80;;
38252;SDS011;24785;52.372;20.672;2023-05-10T05:36:45;8.13;;;3.33;;
38252;SDS011;24785;52.372;20.672;2023-05-10T05:46:46;7.40;;;2.75;;
38252;SDS011;24785;52.372;20.672;2023-05-10T05:56:46;7.47;;;2.75;;
38252;SDS011;24785;52.372;20.672;2023-05-10T06:06:47;5.97;;;2.75;;
38252;SDS011;24785;52.372;20.672;2023-05-10T06:16:48;6.78;;;2.30;;
38252;SDS011;24785;52.372;20.672;2023-05-10T06:26:49;6.35;;;2.30;;
38252;SDS011;24785;52.372;20.672;2023-05-10T06:36:50;4.65;;;2.08;;
38252;SDS011;24785;52.372;20.672;2023-05-10T06:46:52;7.70;;;2.45;;
38252;SDS011;24785;52.372;20.672;2023-05-10T06:56:54;4.67;;;2.27;;
38252;SDS011;24785;52.372;20.672;2023-05-10T07:06:56;5.43;;;2.27;;
38252;SDS011;24785;52.372;20.672;2023-05-10T07:16:57;3.67;;;1.90;;
38252;SDS011;24785;52.372;20.672;2023-05-10T07:26:58;7.45;;;2.72;;
38252;SDS011;24785;52.372;20.672;2023-05-10T07:36:59;5.03;;;2.13;;
38252;SDS011;24785;52.372;20.672;2023-05-10T07:47:00;7.25;;;2.42;;
38252;SDS011;24785;52.372;20.672;2023-05-10T07:57:01;12.55;;;2.78;;
38252;SDS011;24785;52.372;20.672;2023-05-10T08:07:02;5.50;;;2.10;;
38252;SDS011;24785;52.372;20.672;2023-05-10T08:17:03;7.78;;;2.08;;
38252;SDS011;24785;52.372;20.672;2023-05-10T08:27:05;9.32;;;1.90;;
38252;SDS011;24785;52.372;20.672;2023-05-10T08:37:06;5.85;;;2.10;;
38252;SDS011;24785;52.372;20.672;2023-05-10T08:47:07;7.57;;;2.08;;
38252;SDS011;24785;52.372;20.672;2023-05-10T08:57:10;5.28;;;1.90;;
38252;SDS011;24785;52.372;20.672;2023-05-10T09:07:11;6.35;;;1.95;;
38252;SDS011;24785;52.372;20.672;2023-05-10T09:17:12;4.60;;;1.83;;
38252;SDS011;24785;52.372;20.672;2023-05-10T09:27:13;12.15;;;2.15;;
38252;SDS011;24785;52.372;20.672;2023-05-10T09:37:14;5.90;;;1.85;;
38252;SDS011;24785;52.372;20.672;2023-05-10T09:47:18;10.60;;;2.10;;
38252;SDS011;24785;52.372;20.672;2023-05-10T09:57:22;5.05;;;1.90;;
38252;SDS011;24785;52.372;20.672;2023-05-10T10:07:25;3.60;;;1.77;;
38252;SDS011;24785;52.372;20.672;2023-05-10T10:17:27;9.17;;;2.13;;
38252;SDS011;24785;52.372;20.672;2023-05-10T10:37:44;5.90;;;2.20;;
38252;SDS011;24785;52.372;20.672;2023-05-10T10:47:46;6.75;;;2.25;;
38252;SDS011;24785;52.372;20.672;2023-05-10T10:57:48;6.07;;;2.20;;
38252;SDS011;24785;52.372;20.672;2023-05-10T11:07:56;11.40;;;2.38;;
38252;SDS011;24785;52.372;20.672;2023-05-10T11:17:58;4.82;;;1.80;;
38252;SDS011;24785;52.372;20.672;2023-05-10T11:28:00;8.47;;;3.60;;
38252;SDS011;24785;52.372;20.672;2023-05-10T11:38:05;5.95;;;1.98;;
38252;SDS011;24785;52.372;20.672;2023-05-10T11:48:10;6.63;;;2.00;;
38252;SDS011;24785;52.372;20.672;2023-05-10T11:58:10;4.60;;;1.92;;
38252;SDS011;24785;52.372;20.672;2023-05-10T12:08:12;11.70;;;2.38;;
38252;SDS011;24785;52.372;20.672;2023-05-10T12:18:22;14.43;;;2.08;;
38252;SDS011;24785;52.372;20.672;2023-05-10T12:28:25;15.60;;;2.42;;
38252;SDS011;24785;52.372;20.672;2023-05-10T12:38:40;4.22;;;2.10;;
38252;SDS011;24785;52.372;20.672;2023-05-10T12:48:48;6.53;;;2.13;;
38252;SDS011;24785;52.372;20.672;2023-05-10T12:58:55;7.03;;;2.22;;
38252;SDS011;24785;52.372;20.672;2023-05-10T13:08:55;8.18;;;2.25;;
38252;SDS011;24785;52.372;20.672;2023-05-10T13:18:58;9.88;;;2.08;;
38252;SDS011;24785;52.372;20.672;2023-05-10T13:28:59;6.15;;;2.17;;
38252;SDS011;24785;52.372;20.672;2023-05-10T13:38:59;3.53;;;1.80;;
38252;SDS011;24785;52.372;20.672;2023-05-10T13:49:03;4.65;;;1.83;;
38252;SDS011;24785;52.372;20.672;2023-05-10T13:59:04;3.45;;;1.60;;
38252;SDS011;24785;52.372;20.672;2023-05-10T14:09:05;3.65;;;1.63;;
38252;SDS011;24785;52.372;20.672;2023-05-10T14:19:06;5.50;;;1.85;;
38252;SDS011;24785;52.372;20.672;2023-05-10T14:29:07;3.38;;;1.63;;
38252;SDS011;24785;52.372;20.672;2023-05-10T14:39:07;3.42;;;1.58;;
38252;SDS011;24785;52.372;20.672;2023-05-10T14:59:11;7.30;;;1.65;;
38252;SDS011;24785;52.372;20.672;2023-05-10T15:09:12;8.85;;;1.65;;
38252;SDS011;24785;52.372;20.672;2023-05-10T15:19:13;3.92;;;1.83;;
38252;SDS011;24785;52.372;20.672;2023-05-10T15:29:14;5.35;;;1.70;;
38252;SDS011;24785;52.372;20.672;2023-05-10T15:39:20;3.70;;;1.65;;
38252;SDS011;24785;52.372;20.672;2023-05-10T15:49:21;5.13;;;1.77;;
38252;SDS011;24785;52.372;20.672;2023-05-10T15:59:22;6.43;;;1.75;;
38252;SDS011;24785;52.372;20.672;2023-05-10T16:09:23;5.00;;;2.10;;
38252;SDS011;24785;52.372;20.672;2023-05-10T16:19:24;5.80;;;1.88;;
38252;SDS011;24785;52.372;20.672;2023-05-10T16:29:26;10.48;;;1.98;;
38252;SDS011;24785;52.372;20.672;2023-05-10T16:39:27;8.02;;;3.05;;
38252;SDS011;24785;52.372;20.672;2023-05-10T16:49:28;4.57;;;1.52;;
38252;SDS011;24785;52.372;20.672;2023-05-10T16:59:29;5.47;;;1.58;;
38252;SDS011;24785;52.372;20.672;2023-05-10T17:09:30;3.13;;;1.52;;
38252;SDS011;24785;52.372;20.672;2023-05-10T17:19:31;3.78;;;1.50;;
38252;SDS011;24785;52.372;20.672;2023-05-10T17:29:32;3.50;;;1.67;;
38252;SDS011;24785;52.372;20.672;2023-05-10T17:39:33;4.90;;;1.77;;
38252;SDS011;24785;52.372;20.672;2023-05-10T17:49:34;3.72;;;2.03;;
38252;SDS011;24785;52.372;20.672;2023-05-10T17:59:35;4.55;;;1.70;;
38252;SDS011;24785;52.372;20.672;2023-05-10T18:09:36;6.45;;;3.22;;
38252;SDS011;24785;52.372;20.672;2023-05-10T18:19:36;3.88;;;1.90;;
38252;SDS011;24785;52.372;20.672;2023-05-10T18:29:37;6.93;;;2.03;;
38252;SDS011;24785;52.372;20.672;2023-05-10T18:39:38;12.02;;;4.78;;
38252;SDS011;24785;52.372;20.672;2023-05-10T18:49:40;32.78;;;12.65;;
38252;SDS011;24785;52.372;20.672;2023-05-10T18:59:41;13.82;;;5.85;;
38252;SDS011;24785;52.372;20.672;2023-05-10T19:09:42;31.92;;;20.42;;
38252;SDS011;24785;52.372;20.672;2023-05-10T19:19:43;41.33;;;19.73;;
38252;SDS011;24785;52.372;20.672;2023-05-10T19:29:44;30.88;;;12.55;;
38252;SDS011;24785;52.372;20.672;2023-05-10T19:39:44;28.60;;;10.52;;
38252;SDS011;24785;52.372;20.672;2023-05-10T19:49:45;24.23;;;9.18;;
38252;SDS011;24785;52.372;20.672;2023-05-10T19:59:46;16.52;;;6.50;;
38252;SDS011;24785;52.372;20.672;2023-05-10T20:09:47;9.77;;;4.45;;
38252;SDS011;24785;52.372;20.672;2023-05-10T20:19:47;56.28;;;16.35;;
38252;SDS011;24785;52.372;20.672;2023-05-10T20:29:48;23.05;;;8.10;;
38252;SDS011;24785;52.372;20.672;2023-05-10T20:39:49;19.42;;;7.88;;
38252;SDS011;24785;52.372;20.672;2023-05-10T20:49:50;10.00;;;4.43;;
38252;SDS011;24785;52.372;20.672;2023-05-10T20:59:51;20.88;;;8.00;;
38252;SDS011;24785;52.372;20.672;2023-05-10T21:09:52;13.98;;;4.95;;
38252;SDS011;24785;52.372;20.672;2023-05-10T21:19:52;13.52;;;5.65;;
38252;SDS011;24785;52.372;20.672;2023-05-10T21:29:53;7.40;;;3.38;;
38252;SDS011;24785;52.372;20.672;2023-05-10T21:39:54;8.48;;;3.30;;
38252;SDS011;24785;52.372;20.672;2023-05-10T21:49:55;5.82;;;2.65;;
38252;SDS011;24785;52.372;20.672;2023-05-10T21:59:56;6.32;;;3.08;;
38252;SDS011;24785;52.372;20.672;2023-05-10T22:09:57;4.45;;;2.40;;
38252;SDS011;24785;52.372;20.672;2023-05-10T22:19:58;7.05;;;2.55;;
38252;SDS011;24785;52.372;20.672;2023-05-10T22:29:59;8.02;;;2.60;;
38252;SDS011;24785;52.372;20.672;2023-05-10T22:40:00;6.68;;;2.47;;
38252;SDS011;24785;52.372;20.672;2023-05-10T22:50:00;6.85;;;2.80;;
38252;SDS011;24785;52.372;20.672;2023-05-10T23:00:03;7.13;;;2.47;;
38252;SDS011;24785;52.372;20.672;2023-05-10T23:10:04;3.88;;;2.30;;
38252;SDS011;24785;52.372;20.672;2023-05-10T23:20:06;4.60;;;2.13;;
38252;SDS011;24785;52.372;20.672;2023-05-10T23:30:07;9.93;;;2.15;;
38252;SDS011;24785;52.372;20.672;2023-05-10T23:40:08;4.10;;;2.22;;
38252;SDS011;24785;52.372;20.672;2023-05-10T23:50:10;7.78;;;2.72;;
